createdAt,value
2022-08-29T00:01:23.195Z,101196.22
2022-08-29T00:03:50.492Z,101192.06
2022-08-29T00:06:18.236Z,101187.31
2022-08-29T00:08:45.308Z,101187.31
2022-08-29T00:11:13.353Z,101182.50
2022-08-29T00:13:40.943Z,101193.25
2022-08-29T00:16:08.691Z,101194.66
2022-08-29T00:18:37.060Z,101188.78
2022-08-29T00:21:04.941Z,101188.75
2022-08-29T00:23:32.138Z,101193.69
2022-08-29T00:25:59.164Z,101195.69
2022-08-29T00:28:26.806Z,101192.13
2022-08-29T00:30:54.044Z,101189.16
2022-08-29T00:33:21.150Z,101189.06
2022-08-29T00:35:48.264Z,101193.00
2022-08-29T00:38:18.276Z,101198.97
2022-08-29T00:40:58.062Z,101203.38
2022-08-29T00:43:31.377Z,101202.41
2022-08-29T00:46:41.426Z,101198.69
2022-08-29T00:49:39.329Z,101196.72
2022-08-29T00:52:27.038Z,101190.13
2022-08-29T00:54:55.760Z,101195.63
2022-08-29T00:57:26.368Z,101192.72
2022-08-29T00:59:54.247Z,101197.38
2022-08-29T01:02:21.687Z,101195.25
2022-08-29T01:04:48.752Z,101193.06
2022-08-29T01:07:15.967Z,101198.69
2022-08-29T01:09:46.880Z,101200.72
2022-08-29T01:12:17.877Z,101201.69
2022-08-29T01:14:53.485Z,101200.72
2022-08-29T01:17:42.705Z,101208.38
2022-08-29T01:20:20.817Z,101206.81
2022-08-29T01:23:25.126Z,101208.81
2022-08-29T01:25:52.772Z,101206.47
2022-08-29T01:28:33.568Z,101205.78
2022-08-29T01:31:11.290Z,101207.16
2022-08-29T01:33:48.410Z,101216.78
2022-08-29T01:36:25.770Z,101217.16
2022-08-29T01:38:54.186Z,101218.78
2022-08-29T01:41:22.703Z,101223.81
2022-08-29T01:43:56.041Z,101218.44
2022-08-29T01:46:34.683Z,101222.38
2022-08-29T01:49:07.652Z,101228.13
2022-08-29T01:51:37.430Z,101223.25
2022-08-29T01:54:07.328Z,101222.63
2022-08-29T01:56:44.085Z,101225.88
2022-08-29T01:59:17.001Z,101228.13
2022-08-29T02:02:05.218Z,101225.69
2022-08-29T02:04:32.922Z,101237.09
2022-08-29T02:07:00.360Z,101220.44
2022-08-29T02:09:28.911Z,101224.72
2022-08-29T02:11:58.158Z,101223.25
2022-08-29T02:14:26.392Z,101224.00
2022-08-29T02:16:53.498Z,101219.72
2022-08-29T02:19:20.827Z,101225.56
2022-08-29T02:21:48.243Z,101229.34
2022-08-29T02:24:26.128Z,101227.19
2022-08-29T02:26:57.001Z,101213.91
2022-08-29T02:29:26.254Z,101213.53
2022-08-29T02:32:12.787Z,101223.25
2022-08-29T02:34:44.462Z,101227.84
2022-08-29T02:37:12.993Z,101222.94
2022-08-29T02:39:40.102Z,101233.19
2022-08-29T02:42:07.334Z,101234.16
2022-08-29T02:44:34.402Z,101230.94
2022-08-29T02:47:01.447Z,101229.13
2022-08-29T02:49:28.529Z,101226.81
2022-08-29T02:51:57.321Z,101229.69
2022-08-29T02:54:24.364Z,101231.00
2022-08-29T02:56:51.335Z,101226.59
2022-08-29T02:59:18.653Z,101224.25
2022-08-29T03:01:45.667Z,101229.00
2022-08-29T03:04:12.734Z,101227.59
2022-08-29T03:06:39.768Z,101230.47
2022-08-29T03:09:09.078Z,101218.75
2022-08-29T03:11:36.596Z,101221.84
2022-08-29T03:14:03.923Z,101220.16
2022-08-29T03:16:31.385Z,101219.97
2022-08-29T03:18:58.584Z,101219.91
2022-08-29T03:21:27.897Z,101222.06
2022-08-29T03:23:59.097Z,101225.63
2022-08-29T03:26:26.173Z,101217.78
2022-08-29T03:28:53.273Z,101225.28
2022-08-29T03:31:21.276Z,101214.75
2022-08-29T03:33:48.509Z,101225.63
2022-08-29T03:36:15.705Z,101225.66
2022-08-29T03:38:47.691Z,101220.75
2022-08-29T03:41:29.169Z,101227.66
2022-08-29T03:43:58.913Z,101214.34
2022-08-29T03:46:27.840Z,101213.59
2022-08-29T03:48:55.079Z,101215.28
2022-08-29T03:51:22.726Z,101208.72
2022-08-29T03:53:52.302Z,101207.28
2022-08-29T03:56:19.374Z,101209.19
2022-08-29T03:58:52.564Z,101206.34
2022-08-29T04:01:27.353Z,101210.09
2022-08-29T04:03:57.030Z,101217.66
2022-08-29T04:06:30.068Z,101221.22
2022-08-29T04:08:58.952Z,101219.69
2022-08-29T04:11:28.220Z,101221.25
2022-08-29T04:13:55.709Z,101217.81
2022-08-29T04:16:30.748Z,101217.16
2022-08-29T04:18:58.746Z,101217.56
2022-08-29T04:21:26.011Z,101214.84
2022-08-29T04:23:54.541Z,101216.66
2022-08-29T04:26:37.763Z,101224.75
2022-08-29T04:29:09.817Z,101227.38
2022-08-29T04:31:38.011Z,101224.75
2022-08-29T04:34:07.834Z,101228.34
2022-08-29T04:36:38.252Z,101231.72
2022-08-29T04:39:06.678Z,101228.25
2022-08-29T04:41:34.884Z,101228.97
2022-08-29T04:44:03.066Z,101224.34
2022-08-29T04:46:30.873Z,101232.34
2022-08-29T04:49:03.273Z,101235.56
2022-08-29T04:51:34.334Z,101239.75
2022-08-29T04:54:03.600Z,101235.38
2022-08-29T04:56:31.197Z,101247.06
2022-08-29T04:58:58.555Z,101247.78
2022-08-29T05:01:27.281Z,101245.38
2022-08-29T05:03:55.581Z,101248.38
2022-08-29T05:06:24.322Z,101252.56
2022-08-29T05:08:59.037Z,101243.25
2022-08-29T05:11:29.268Z,101240.38
2022-08-29T05:13:56.585Z,101240.00
2022-08-29T05:16:23.718Z,101251.56
2022-08-29T05:18:50.806Z,101250.72
2022-08-29T05:21:33.977Z,101253.38
2022-08-29T05:24:07.179Z,101263.38
2022-08-29T05:26:41.404Z,101262.00
2022-08-29T05:29:12.080Z,101266.50
2022-08-29T05:31:41.821Z,101271.38
2022-08-29T05:34:32.253Z,101264.69
2022-08-29T05:36:58.491Z,101270.03
2022-08-29T05:39:25.480Z,101272.69
2022-08-29T05:41:57.336Z,101279.00
2022-08-29T05:44:32.920Z,101268.91
2022-08-29T05:47:06.097Z,101269.91
2022-08-29T05:49:35.245Z,101271.03
2022-08-29T05:52:02.342Z,101273.03
2022-08-29T05:54:32.119Z,101269.84
2022-08-29T05:56:59.085Z,101276.75
2022-08-29T05:59:26.124Z,101272.78
2022-08-29T06:01:53.172Z,101268.59
2022-08-29T06:04:20.367Z,101266.91
2022-08-29T06:06:47.470Z,101273.44
2022-08-29T06:09:15.295Z,101272.28
2022-08-29T06:11:46.009Z,101271.00
2022-08-29T06:14:15.243Z,101262.66
2022-08-29T06:16:42.627Z,101269.66
2022-08-29T06:19:10.005Z,101269.72
2022-08-29T06:21:37.428Z,101272.22
2022-08-29T06:24:06.286Z,101275.00
2022-08-29T06:26:34.297Z,101272.81
2022-08-29T06:29:05.981Z,101279.31
2022-08-29T06:31:33.068Z,101274.16
2022-08-29T06:34:05.138Z,101272.59
2022-08-29T06:36:33.725Z,101281.09
2022-08-29T06:39:09.726Z,101280.59
2022-08-29T06:41:40.286Z,101286.63
2022-08-29T06:44:09.211Z,101285.19
2022-08-29T06:46:48.587Z,101292.88
2022-08-29T06:49:19.038Z,101296.50
2022-08-29T06:51:54.132Z,101294.41
2022-08-29T06:54:28.129Z,101290.63
2022-08-29T06:56:56.680Z,101294.41
2022-08-29T06:59:24.335Z,101291.38
2022-08-29T07:01:51.664Z,101280.84
2022-08-29T07:04:20.559Z,101292.22
2022-08-29T07:06:49.172Z,101299.38
2022-08-29T07:09:16.756Z,101299.69
2022-08-29T07:11:43.980Z,101299.69
2022-08-29T07:14:12.716Z,101298.56
2022-08-29T07:16:41.640Z,101311.91
2022-08-29T07:19:10.377Z,101311.53
2022-08-29T07:21:38.548Z,101305.16
2022-08-29T07:24:07.987Z,101307.66
2022-08-29T07:26:44.745Z,101304.06
2022-08-29T07:29:20.633Z,101305.72
2022-08-29T07:31:48.810Z,101307.94
2022-08-29T07:34:20.423Z,101307.94
2022-08-29T07:36:48.253Z,101308.91
2022-08-29T07:39:19.051Z,101310.09
2022-08-29T07:41:46.583Z,101313.44
2022-08-29T07:44:14.475Z,101318.72
2022-08-29T07:46:44.165Z,101322.31
2022-08-29T07:49:12.374Z,101323.03
2022-08-29T07:51:42.328Z,101328.59
2022-08-29T07:54:16.479Z,101327.16
2022-08-29T07:56:43.774Z,101322.66
2022-08-29T07:59:10.897Z,101318.53
2022-08-29T08:01:38.808Z,101324.75
2022-08-29T08:04:06.519Z,101332.47
2022-08-29T08:06:36.729Z,101337.53
2022-08-29T08:09:09.120Z,101343.13
2022-08-29T08:11:39.226Z,101336.78
2022-08-29T08:14:06.629Z,101340.63
2022-08-29T08:16:34.138Z,101341.66
2022-08-29T08:19:01.935Z,101347.44
2022-08-29T08:21:30.369Z,101352.31
2022-08-29T08:23:57.889Z,101354.69
2022-08-29T08:26:25.176Z,101348.94
2022-08-29T08:28:53.520Z,101353.13
2022-08-29T08:31:23.451Z,101358.94
2022-08-29T08:33:51.934Z,101354.00
2022-08-29T08:36:30.832Z,101357.56
2022-08-29T08:39:02.645Z,101356.69
2022-08-29T08:42:04.317Z,101353.72
2022-08-29T08:45:03.391Z,101365.13
2022-08-29T08:48:13.878Z,101359.56
2022-08-29T08:51:30.670Z,101363.72
2022-08-29T08:53:59.504Z,101360.78
2022-08-29T08:56:35.102Z,101358.63
2022-08-29T08:59:34.646Z,101353.97
2022-08-29T09:02:35.157Z,101352.00
2022-08-29T09:05:20.209Z,101353.50
2022-08-29T09:08:12.353Z,101356.59
2022-08-29T09:11:12.333Z,101357.59
2022-08-29T09:14:14.558Z,101359.72
2022-08-29T09:16:52.315Z,101362.97
2022-08-29T09:19:19.323Z,101361.66
2022-08-29T09:22:07.705Z,101357.38
2022-08-29T09:25:00.758Z,101357.69
2022-08-29T09:27:33.857Z,101359.34
2022-08-29T09:30:20.437Z,101366.25
2022-08-29T09:33:04.310Z,101360.94
2022-08-29T09:35:51.846Z,101364.78
2022-08-29T09:38:26.600Z,101371.97
2022-08-29T09:41:10.659Z,101367.31
2022-08-29T09:43:40.614Z,101364.34
2022-08-29T09:46:26.655Z,101374.31
2022-08-29T09:48:59.416Z,101369.47
2022-08-29T09:51:35.760Z,101366.53
2022-08-29T09:54:22.875Z,101375.03
2022-08-29T09:57:03.209Z,101366.81
2022-08-29T09:59:49.011Z,101369.28
2022-08-29T10:02:32.649Z,101373.03
2022-08-29T10:05:13.053Z,101372.34
2022-08-29T10:07:54.794Z,101376.31
2022-08-29T10:10:30.228Z,101384.72
2022-08-29T10:13:37.018Z,101377.28
2022-08-29T10:16:33.357Z,101387.47
2022-08-29T10:19:42.435Z,101373.50
2022-08-29T10:26:34.617Z,101384.44
2022-08-29T10:29:17.278Z,101376.25
2022-08-29T10:33:05.354Z,101385.78
2022-08-29T10:39:58.847Z,101385.13
2022-08-29T10:43:55.377Z,101379.69
2022-08-29T10:47:22.589Z,101381.16
2022-08-29T10:53:36.837Z,101380.56
2022-08-29T10:57:23.380Z,101377.22
2022-08-29T11:00:11.306Z,101376.44
2022-08-29T11:03:04.817Z,101379.22
2022-08-29T11:05:53.701Z,101378.06
2022-08-29T11:09:14.651Z,101369.13
2022-08-29T11:13:11.197Z,101378.34
2022-08-29T11:16:27.962Z,101375.19
2022-08-29T11:19:58.160Z,101362.47
2022-08-29T11:23:32.073Z,101367.31
2022-08-29T11:26:52.662Z,101360.50
2022-08-29T11:30:02.867Z,101352.09
2022-08-29T11:33:46.591Z,101363.72
2022-08-29T11:37:14.282Z,101364.06
2022-08-29T11:39:59.063Z,101358.94
2022-08-29T11:43:04.055Z,101364.66
2022-08-29T11:45:58.300Z,101361.72
2022-08-29T11:49:14.570Z,101366.94
2022-08-29T11:51:52.680Z,101372.56
2022-08-29T11:55:38.711Z,101378.91
2022-08-29T11:58:25.301Z,101376.56
2022-08-29T12:01:34.918Z,101382.88
2022-08-29T12:04:10.886Z,101375.56
2022-08-29T12:07:19.804Z,101375.22
2022-08-29T12:10:00.358Z,101379.41
2022-08-29T12:13:08.010Z,101374.88
2022-08-29T12:18:36.567Z,101384.84
2022-08-29T12:21:45.354Z,101371.56
2022-08-29T12:24:43.161Z,101374.66
2022-08-29T12:32:41.238Z,101365.59
2022-08-29T12:35:42.273Z,101366.16
2022-08-29T12:39:09.848Z,101370.28
2022-08-29T12:42:13.536Z,101374.09
2022-08-29T12:45:15.464Z,101365.34
2022-08-29T12:48:00.067Z,101367.06
2022-08-29T12:52:03.473Z,101368.97
2022-08-29T12:53:56.142Z,101362.19
2022-08-29T12:56:57.170Z,101365.69
2022-08-29T12:59:51.024Z,101360.97
2022-08-29T13:02:41.758Z,101368.03
2022-08-29T13:05:35.283Z,101350.00
2022-08-29T13:08:15.887Z,101350.16
2022-08-29T13:11:11.388Z,101351.94
2022-08-29T13:13:49.399Z,101348.66
2022-08-29T13:16:45.590Z,101347.91
2022-08-29T13:19:25.164Z,101345.97
2022-08-29T13:22:04.245Z,101349.66
2022-08-29T13:25:10.057Z,101348.97
2022-08-29T13:27:37.830Z,101342.34
2022-08-29T13:30:10.205Z,101335.41
2022-08-29T13:32:54.998Z,101333.00
2022-08-29T13:35:39.005Z,101342.16
2022-08-29T13:38:55.695Z,101334.78
2022-08-29T13:41:31.944Z,101328.81
2022-08-29T13:44:04.983Z,101324.34
2022-08-29T13:46:47.597Z,101317.41
2022-08-29T13:49:35.440Z,101328.16
2022-08-29T13:52:06.945Z,101319.28
2022-08-29T13:54:35.762Z,101324.44
2022-08-29T13:57:08.074Z,101325.44
2022-08-29T13:59:43.992Z,101320.59
2022-08-29T14:02:14.802Z,101318.44
2022-08-29T14:04:48.505Z,101322.56
2022-08-29T14:07:32.218Z,101324.72
2022-08-29T14:10:04.191Z,101325.59
2022-08-29T14:12:33.763Z,101327.16
2022-08-29T14:15:10.675Z,101322.78
2022-08-29T14:17:47.529Z,101315.75
2022-08-29T14:20:18.621Z,101324.16
2022-08-29T14:22:51.571Z,101313.91
2022-08-29T14:25:20.841Z,101318.03
2022-08-29T14:27:49.139Z,101312.00
2022-08-29T14:30:27.215Z,101310.94
2022-08-29T14:32:54.604Z,101317.78
2022-08-29T14:35:32.166Z,101308.81
2022-08-29T14:38:02.134Z,101312.03
2022-08-29T14:40:42.995Z,101310.63
2022-08-29T14:43:11.284Z,101314.00
2022-08-29T14:45:38.594Z,101314.31
2022-08-29T14:48:06.480Z,101321.03
2022-08-29T14:50:42.406Z,101308.44
2022-08-29T14:53:15.230Z,101312.88
2022-08-29T14:55:42.582Z,101312.03
2022-08-29T14:58:09.608Z,101313.38
2022-08-29T15:00:37.123Z,101298.81
2022-08-29T15:03:04.694Z,101305.03
2022-08-29T15:05:32.149Z,101301.63
2022-08-29T15:08:08.980Z,101298.28
2022-08-29T15:10:37.442Z,101300.44
2022-08-29T15:13:07.201Z,101296.03
2022-08-29T15:15:35.029Z,101296.75
2022-08-29T15:18:06.878Z,101295.84
2022-08-29T15:20:40.137Z,101294.91
2022-08-29T15:23:19.153Z,101296.13
2022-08-29T15:25:52.016Z,101296.84
2022-08-29T15:28:20.806Z,101297.94
2022-08-29T15:30:54.016Z,101295.38
2022-08-29T15:33:23.298Z,101300.69
2022-08-29T15:35:51.958Z,101291.22
2022-08-29T15:38:19.413Z,101292.81
2022-08-29T15:40:46.497Z,101300.13
2022-08-29T15:43:13.748Z,101294.69
2022-08-29T15:45:40.903Z,101305.53
2022-08-29T15:48:11.935Z,101296.69
2022-08-29T15:50:42.351Z,101307.00
2022-08-29T15:53:09.619Z,101298.31
2022-08-29T15:55:44.204Z,101293.59
2022-08-29T15:58:11.781Z,101294.28
2022-08-29T16:00:41.387Z,101297.63
2022-08-29T16:03:11.274Z,101292.28
2022-08-29T16:05:40.191Z,101297.41
2022-08-29T16:08:25.913Z,101294.41
2022-08-29T16:10:56.948Z,101294.41
2022-08-29T16:13:24.123Z,101300.75
2022-08-29T16:15:51.395Z,101296.19
2022-08-29T16:18:19.017Z,101296.06
2022-08-29T16:20:46.087Z,101294.03
2022-08-29T16:23:13.202Z,101297.84
2022-08-29T16:25:42.184Z,101301.34
2022-08-29T16:28:11.714Z,101292.88
2022-08-29T16:30:44.388Z,101291.56
2022-08-29T16:33:13.685Z,101292.38
2022-08-29T16:35:41.331Z,101285.63
2022-08-29T16:38:08.635Z,101287.78
2022-08-29T16:43:04.193Z,101298.88
2022-08-29T16:45:31.734Z,101298.81
2022-08-29T16:48:00.008Z,101295.16
2022-08-29T16:50:28.731Z,101294.03
2022-08-29T16:52:56.398Z,101303.06
2022-08-29T16:55:24.368Z,101303.56
2022-08-29T16:58:10.304Z,101299.56
2022-08-29T17:00:40.002Z,101310.00
2022-08-29T17:03:07.834Z,101309.94
2022-08-29T17:05:35.178Z,101302.84
2022-08-29T17:08:05.576Z,101299.72
2022-08-29T17:10:32.669Z,101297.88
2022-08-29T17:12:59.882Z,101298.50
2022-08-29T17:15:29.614Z,101310.31
2022-08-29T17:17:56.631Z,101311.31
2022-08-29T17:20:24.374Z,101313.31
2022-08-29T17:22:52.257Z,101314.19
2022-08-29T17:25:21.152Z,101313.31
2022-08-29T17:28:07.468Z,101305.69
2022-08-29T17:30:36.667Z,101313.84
2022-08-29T17:33:04.256Z,101309.72
2022-08-29T17:35:31.270Z,101304.28
2022-08-29T17:37:58.605Z,101301.44
2022-08-29T17:40:26.076Z,101301.94
2022-08-29T17:42:53.619Z,101303.28
2022-08-29T17:45:20.691Z,101308.09
2022-08-29T17:47:47.802Z,101303.63
2022-08-29T17:50:14.774Z,101301.31
2022-08-29T17:52:41.806Z,101300.16
2022-08-29T17:55:09.431Z,101302.47
2022-08-29T17:57:36.532Z,101305.78
2022-08-29T18:00:07.582Z,101305.06
2022-08-29T18:02:35.108Z,101301.56
2022-08-29T18:05:02.511Z,101307.72
2022-08-29T18:07:29.882Z,101306.50
2022-08-29T18:09:59.263Z,101306.13
2022-08-29T18:12:26.332Z,101305.81
2022-08-29T18:14:54.853Z,101314.47
2022-08-29T18:17:21.953Z,101316.13
2022-08-29T18:19:49.004Z,101319.63
2022-08-29T18:22:16.058Z,101324.38
2022-08-29T18:24:43.159Z,101322.03
2022-08-29T18:27:10.221Z,101329.16
2022-08-29T18:29:37.236Z,101325.16
2022-08-29T18:32:04.621Z,101325.25
2022-08-29T18:34:31.634Z,101334.19
2022-08-29T18:36:58.642Z,101334.97
2022-08-29T18:39:25.864Z,101337.44
2022-08-29T18:41:52.816Z,101340.94
2022-08-29T18:44:19.899Z,101337.13
2022-08-29T18:46:51.682Z,101357.06
2022-08-29T18:49:19.871Z,101356.06
2022-08-29T18:51:47.188Z,101359.47
2022-08-29T18:54:18.760Z,101363.47
2022-08-29T18:56:46.749Z,101366.91
2022-08-29T18:59:13.729Z,101369.38
2022-08-29T19:01:42.632Z,101368.66
2022-08-29T19:04:09.673Z,101370.81
2022-08-29T19:06:36.631Z,101377.78
2022-08-29T19:09:03.830Z,101372.88
2022-08-29T19:11:31.573Z,101380.50
2022-08-29T19:13:58.594Z,101379.53
2022-08-29T19:16:25.662Z,101381.50
2022-08-29T19:18:52.786Z,101375.94
2022-08-29T19:21:19.948Z,101392.78
2022-08-29T19:23:52.206Z,101394.19
2022-08-29T19:26:28.160Z,101398.72
2022-08-29T19:28:59.208Z,101398.50
2022-08-29T19:31:28.003Z,101401.16
2022-08-29T19:33:55.298Z,101405.75
2022-08-29T19:36:23.429Z,101399.88
2022-08-29T19:38:53.568Z,101403.38
2022-08-29T19:41:20.866Z,101408.66
2022-08-29T19:43:48.799Z,101412.41
2022-08-29T19:46:23.038Z,101406.03
2022-08-29T19:48:52.327Z,101413.72
2022-08-29T19:51:24.922Z,101407.47
2022-08-29T19:53:56.581Z,101407.06
2022-08-29T19:56:28.455Z,101410.53
2022-08-29T19:58:56.777Z,101402.22
2022-08-29T20:01:24.181Z,101405.03
2022-08-29T20:03:53.934Z,101407.38
2022-08-29T20:06:21.495Z,101404.75
2022-08-29T20:08:48.671Z,101405.47
2022-08-29T20:11:24.475Z,101406.13
2022-08-29T20:13:57.614Z,101406.44
2022-08-29T20:16:31.285Z,101408.38
2022-08-29T20:18:59.098Z,101420.91
2022-08-29T20:21:26.625Z,101422.44
2022-08-29T20:23:58.229Z,101423.97
2022-08-29T20:26:31.409Z,101424.94
2022-08-29T20:29:02.007Z,101430.09
2022-08-29T20:31:29.889Z,101431.31
2022-08-29T20:33:57.198Z,101433.44
2022-08-29T20:36:43.780Z,101427.59
2022-08-29T20:39:16.993Z,101435.09
2022-08-29T20:41:55.644Z,101422.78
2022-08-29T20:44:31.508Z,101426.13
2022-08-29T20:47:00.747Z,101433.88
2022-08-29T20:49:27.813Z,101442.09
2022-08-29T20:51:54.933Z,101443.34
2022-08-29T20:54:24.954Z,101438.34
2022-08-29T20:56:54.552Z,101443.66
2022-08-29T20:59:26.463Z,101451.28
2022-08-29T21:01:55.365Z,101445.16
2022-08-29T21:04:41.872Z,101440.56
2022-08-29T21:07:15.057Z,101450.16
2022-08-29T21:09:46.346Z,101443.50
2022-08-29T21:12:14.754Z,101436.66
2022-08-29T21:14:42.310Z,101440.31
2022-08-29T21:17:11.564Z,101441.13
2022-08-29T21:19:39.787Z,101437.38
2022-08-29T21:22:10.001Z,101446.97
2022-08-29T21:24:37.114Z,101452.41
2022-08-29T21:27:04.636Z,101445.84
2022-08-29T21:29:31.866Z,101451.41
2022-08-29T21:31:58.955Z,101446.69
2022-08-29T21:34:26.274Z,101448.47
2022-08-29T21:36:54.355Z,101449.88
2022-08-29T21:39:28.607Z,101452.84
2022-08-29T21:41:57.810Z,101446.03
2022-08-29T21:44:27.939Z,101450.63
2022-08-29T21:46:55.000Z,101449.50
2022-08-29T21:49:22.090Z,101454.44
2022-08-29T21:51:50.093Z,101449.50
2022-08-29T21:54:18.344Z,101454.78
2022-08-29T21:56:46.539Z,101457.56
2022-08-29T21:59:15.172Z,101456.00
2022-08-29T22:01:45.459Z,101462.22
2022-08-29T22:04:19.151Z,101462.66
2022-08-29T22:06:54.710Z,101458.06
2022-08-29T22:09:21.804Z,101473.06
2022-08-29T22:11:49.235Z,101466.69
2022-08-29T22:14:16.263Z,101471.44
2022-08-29T22:16:43.589Z,101476.00
2022-08-29T22:19:17.629Z,101473.56
2022-08-29T22:21:53.760Z,101470.19
2022-08-29T22:24:20.864Z,101467.91
2022-08-29T22:26:48.163Z,101480.56
2022-08-29T22:29:15.916Z,101482.63
2022-08-29T22:31:44.816Z,101479.72
2022-08-29T22:34:17.526Z,101481.91
2022-08-29T22:36:45.480Z,101478.44
2022-08-29T22:39:12.530Z,101483.28
2022-08-29T22:41:42.112Z,101474.53
2022-08-29T22:47:00.325Z,101465.91
2022-08-29T22:49:33.403Z,101474.22
2022-08-29T22:52:01.067Z,101474.66
2022-08-29T22:54:37.209Z,101484.19
2022-08-29T22:57:13.658Z,101478.91
2022-08-29T22:59:42.756Z,101475.06
2022-08-29T23:02:12.296Z,101476.16
2022-08-29T23:04:40.456Z,101489.19
2022-08-29T23:07:08.719Z,101479.16
2022-08-29T23:09:41.793Z,101479.66
2022-08-29T23:12:12.789Z,101484.50
2022-08-29T23:14:43.164Z,101483.38
2022-08-29T23:17:10.238Z,101487.13
2022-08-29T23:19:40.945Z,101483.03
2022-08-29T23:22:10.151Z,101486.75
2022-08-29T23:24:39.243Z,101484.50
2022-08-29T23:27:08.367Z,101485.44
2022-08-29T23:29:37.000Z,101484.72
2022-08-29T23:32:09.065Z,101486.28
2022-08-29T23:34:36.013Z,101486.00
2022-08-29T23:37:03.089Z,101484.59
2022-08-29T23:39:30.168Z,101483.06
2022-08-29T23:41:59.728Z,101477.41
2022-08-29T23:44:26.684Z,101475.94
2022-08-29T23:46:56.621Z,101478.09
2022-08-29T23:49:23.920Z,101480.97
2022-08-29T23:51:51.261Z,101478.34
2022-08-29T23:54:19.258Z,101476.44
2022-08-29T23:56:46.294Z,101466.53
2022-08-29T23:59:33.256Z,101466.16
